createdAt,value
2023-04-02T00:00:09.799Z,10.47
2023-04-02T00:02:58.877Z,10.34
2023-04-02T00:05:32.016Z,10.54
2023-04-02T00:08:03.436Z,10.65
2023-04-02T00:10:46.980Z,10.71
2023-04-02T00:13:13.940Z,11.01
2023-04-02T00:15:42.636Z,11.28
2023-04-02T00:18:11.661Z,11.11
2023-04-02T00:20:40.937Z,11.20
2023-04-02T00:23:09.960Z,11.05
2023-04-02T00:25:43.162Z,10.64
2023-04-02T00:28:21.589Z,11.07
2023-04-02T00:30:50.497Z,10.87
2023-04-02T00:33:19.392Z,10.79
2023-04-02T00:35:46.690Z,10.12
2023-04-02T00:38:26.372Z,9.69
2023-04-02T00:40:55.619Z,10.56
2023-04-02T00:43:24.982Z,10.83
2023-04-02T00:45:55.389Z,10.05
2023-04-02T00:48:33.941Z,10.70
2023-04-02T00:51:09.986Z,11.29
2023-04-02T00:53:37.034Z,11.39
2023-04-02T00:56:04.129Z,10.56
2023-04-02T00:58:32.926Z,10.17
2023-04-02T01:01:00.326Z,10.03
2023-04-02T01:03:35.351Z,10.43
2023-04-02T01:06:05.376Z,10.50
2023-04-02T01:08:44.574Z,10.93
2023-04-02T01:11:42.493Z,10.10
2023-04-02T01:14:37.166Z,10.84
2023-04-02T01:17:43.033Z,11.01
2023-04-02T01:20:39.269Z,11.03
2023-04-02T01:23:14.476Z,10.51
2023-04-02T01:26:03.609Z,10.84
2023-04-02T01:28:49.016Z,10.19
2023-04-02T01:31:16.683Z,9.32
2023-04-02T01:33:43.865Z,9.83
2023-04-02T01:36:32.266Z,9.84
2023-04-02T01:39:31.545Z,10.11
2023-04-02T01:42:18.870Z,9.40
2023-04-02T01:44:53.833Z,9.44
2023-04-02T01:47:25.717Z,10.17
2023-04-02T01:50:19.347Z,10.04
2023-04-02T01:52:48.779Z,10.45
2023-04-02T01:55:19.676Z,10.21
2023-04-02T01:57:49.526Z,10.27
2023-04-02T02:00:17.108Z,10.60
2023-04-02T02:02:49.179Z,10.97
2023-04-02T02:05:18.318Z,11.21
2023-04-02T02:07:47.325Z,10.65
2023-04-02T02:10:26.973Z,10.90
2023-04-02T02:12:54.218Z,11.07
2023-04-02T02:15:23.003Z,10.91
2023-04-02T02:17:50.422Z,9.78
2023-04-02T02:20:17.757Z,10.18
2023-04-02T02:22:48.809Z,10.44
2023-04-02T02:25:18.570Z,10.83
2023-04-02T02:27:48.810Z,10.38
2023-04-02T02:30:16.597Z,10.30
2023-04-02T02:32:52.656Z,10.45
2023-04-02T02:35:25.980Z,10.63
2023-04-02T02:38:02.576Z,10.48
2023-04-02T02:40:34.497Z,10.41
2023-04-02T02:43:02.869Z,9.56
2023-04-02T02:45:34.140Z,9.01
2023-04-02T02:48:02.742Z,9.48
2023-04-02T02:50:31.782Z,9.46
2023-04-02T02:53:04.708Z,9.52
2023-04-02T02:55:39.552Z,10.03
2023-04-02T02:58:28.261Z,10.40
2023-04-02T03:01:06.781Z,9.47
2023-04-02T03:03:36.432Z,10.45
2023-04-02T03:06:07.570Z,10.50
2023-04-02T03:08:44.178Z,9.64
2023-04-02T03:11:26.630Z,9.03
2023-04-02T03:13:55.247Z,9.30
2023-04-02T03:16:36.228Z,9.91
2023-04-02T03:19:24.896Z,9.75
2023-04-02T03:21:56.064Z,9.35
2023-04-02T03:24:29.808Z,9.77
2023-04-02T03:27:03.821Z,10.28
2023-04-02T03:29:32.300Z,9.26
2023-04-02T03:32:12.489Z,8.58
2023-04-02T03:35:27.656Z,8.90
2023-04-02T03:38:01.024Z,9.83
2023-04-02T03:40:37.570Z,10.46
2023-04-02T03:43:27.534Z,10.37
2023-04-02T03:45:59.592Z,9.85
2023-04-02T03:48:31.091Z,10.36
2023-04-02T03:51:14.887Z,10.01
2023-04-02T03:53:42.148Z,9.71
2023-04-02T03:56:09.571Z,9.21
2023-04-02T03:58:47.695Z,9.59
2023-04-02T04:01:20.847Z,9.94
2023-04-02T04:03:52.475Z,10.35
2023-04-02T04:06:28.905Z,9.50
2023-04-02T04:09:21.566Z,9.99
2023-04-02T04:11:49.948Z,10.06
2023-04-02T04:14:21.521Z,9.11
2023-04-02T04:17:38.566Z,9.68
2023-04-02T04:20:24.490Z,9.46
2023-04-02T04:22:56.210Z,9.96
2023-04-02T04:25:33.944Z,10.04
2023-04-02T04:28:13.743Z,9.97
2023-04-02T04:31:07.476Z,8.67
2023-04-02T04:33:41.508Z,9.15
2023-04-02T04:36:37.942Z,9.84
2023-04-02T04:39:18.145Z,9.56
2023-04-02T04:41:48.707Z,9.96
2023-04-02T04:44:18.220Z,10.71
2023-04-02T04:47:10.969Z,10.87
2023-04-02T04:49:47.070Z,11.17
2023-04-02T04:52:27.051Z,11.47
2023-04-02T04:54:54.523Z,11.57
2023-04-02T04:57:36.084Z,10.91
2023-04-02T05:00:54.521Z,10.83
2023-04-02T05:03:35.936Z,10.11
2023-04-02T05:06:36.089Z,10.31
2023-04-02T05:09:38.634Z,10.62
2023-04-02T05:12:30.368Z,11.05
2023-04-02T05:15:06.831Z,10.85
2023-04-02T05:17:42.975Z,10.43
2023-04-02T05:20:26.065Z,10.91
2023-04-02T05:23:16.443Z,9.89
2023-04-02T05:26:03.104Z,10.26
2023-04-02T05:28:46.126Z,9.53
2023-04-02T05:31:22.770Z,10.18
2023-04-02T05:33:50.173Z,9.61
2023-04-02T05:36:28.077Z,9.79
2023-04-02T05:38:58.132Z,9.31
2023-04-02T05:41:48.071Z,10.20
2023-04-02T05:44:32.138Z,10.03
2023-04-02T05:47:02.416Z,9.33
2023-04-02T05:49:39.469Z,10.13
2023-04-02T05:52:13.163Z,9.25
2023-04-02T05:54:44.681Z,9.16
2023-04-02T05:57:15.210Z,9.74
2023-04-02T06:00:13.871Z,9.50
2023-04-02T06:02:55.923Z,9.33
2023-04-02T06:05:25.244Z,8.88
2023-04-02T06:08:07.364Z,8.31
2023-04-02T06:10:36.313Z,9.12
2023-04-02T06:13:07.258Z,8.83
2023-04-02T06:15:38.807Z,9.37
2023-04-02T06:18:24.783Z,8.25
2023-04-02T06:20:52.922Z,9.03
2023-04-02T06:23:23.367Z,9.00
2023-04-02T06:25:54.483Z,9.48
2023-04-02T06:28:47.152Z,9.81
2023-04-02T06:31:28.986Z,10.34
2023-04-02T06:33:56.697Z,10.14
2023-04-02T06:36:26.660Z,10.52
2023-04-02T06:38:55.861Z,9.63
2023-04-02T06:41:23.903Z,9.48
2023-04-02T06:44:28.319Z,10.06
2023-04-02T06:47:30.197Z,8.09
2023-04-02T06:50:15.325Z,8.54
2023-04-02T06:52:50.842Z,8.60
2023-04-02T06:55:46.402Z,8.69
2023-04-02T06:58:17.842Z,8.91
2023-04-02T07:00:49.001Z,9.23
2023-04-02T07:03:25.280Z,9.09
2023-04-02T07:05:54.260Z,8.85
2023-04-02T07:08:21.731Z,8.51
2023-04-02T07:10:49.634Z,9.29
2023-04-02T07:13:23.099Z,7.76
2023-04-02T07:15:52.477Z,7.77
2023-04-02T07:18:27.802Z,7.66
2023-04-02T07:20:55.682Z,7.79
2023-04-02T07:23:23.659Z,8.25
2023-04-02T07:25:51.676Z,8.25
2023-04-02T07:28:20.375Z,9.06
2023-04-02T07:30:49.587Z,9.54
2023-04-02T07:33:17.659Z,9.17
2023-04-02T07:35:44.973Z,8.95
2023-04-02T07:38:12.302Z,9.87
2023-04-02T07:40:39.501Z,9.72
2023-04-02T07:43:06.692Z,9.68
2023-04-02T07:45:34.103Z,10.27
2023-04-02T07:48:27.510Z,9.06
2023-04-02T07:50:54.688Z,9.01
2023-04-02T07:53:40.178Z,9.42
2023-04-02T07:56:07.811Z,9.81
2023-04-02T07:58:36.231Z,9.58
2023-04-02T08:01:07.214Z,9.48
2023-04-02T08:03:34.913Z,9.81
2023-04-02T08:06:03.487Z,10.35
2023-04-02T08:08:30.703Z,9.68
2023-04-02T08:10:57.805Z,10.27
2023-04-02T08:13:25.191Z,10.71
2023-04-02T08:15:52.234Z,10.16
2023-04-02T08:18:23.084Z,10.63
2023-04-02T08:20:50.492Z,11.05
2023-04-02T08:23:18.259Z,11.34
2023-04-02T08:25:46.669Z,10.89
2023-04-02T08:28:13.732Z,10.69
2023-04-02T08:30:41.167Z,11.29
2023-04-02T08:33:08.302Z,11.18
2023-04-02T08:35:35.767Z,10.78
2023-04-02T08:38:03.406Z,10.72
2023-04-02T08:40:36.228Z,10.96
2023-04-02T08:43:34.561Z,11.33
2023-04-02T08:46:14.810Z,11.17
2023-04-02T08:48:44.400Z,11.12
2023-04-02T08:51:35.562Z,10.36
2023-04-02T08:54:28.033Z,10.23
2023-04-02T08:57:16.563Z,10.84
2023-04-02T08:59:43.778Z,11.40
2023-04-02T09:02:28.517Z,11.21
2023-04-02T09:05:01.025Z,11.29
2023-04-02T09:07:37.753Z,11.06
2023-04-02T09:10:05.091Z,10.20
2023-04-02T09:12:32.641Z,10.24
2023-04-02T09:15:04.092Z,10.73
2023-04-02T09:17:36.874Z,10.80
2023-04-02T09:20:18.864Z,11.10
2023-04-02T09:22:47.102Z,10.91
2023-04-02T09:25:17.854Z,11.10
2023-04-02T09:27:47.800Z,11.22
2023-04-02T09:30:22.611Z,10.58
2023-04-02T09:32:54.032Z,10.31
2023-04-02T09:35:36.404Z,10.05
2023-04-02T09:38:10.083Z,9.82
2023-04-02T09:40:50.745Z,10.25
2023-04-02T09:43:22.606Z,10.08
2023-04-02T09:46:06.888Z,10.12
2023-04-02T09:48:39.546Z,10.53
2023-04-02T09:51:07.595Z,10.90
2023-04-02T09:53:37.096Z,10.98
2023-04-02T09:56:17.093Z,10.86
2023-04-02T09:58:45.666Z,11.05
2023-04-02T10:01:29.358Z,11.24
2023-04-02T10:03:57.045Z,11.74
2023-04-02T10:06:24.233Z,11.15
2023-04-02T10:08:51.844Z,11.67
2023-04-02T10:11:43.708Z,11.52
2023-04-02T10:14:39.318Z,11.40
2023-04-02T10:17:25.641Z,10.94
2023-04-02T10:19:55.550Z,11.51
2023-04-02T10:22:22.971Z,11.32
2023-04-02T10:24:51.433Z,11.46
2023-04-02T10:27:30.652Z,11.05
2023-04-02T10:30:13.092Z,11.51
2023-04-02T10:32:51.489Z,12.08
2023-04-02T10:35:57.173Z,11.80
2023-04-02T10:38:39.406Z,11.86
2023-04-02T10:41:09.116Z,11.85
2023-04-02T10:44:06.175Z,11.44
2023-04-02T10:46:56.070Z,11.73
2023-04-02T10:49:41.355Z,11.85
2023-04-02T10:52:21.369Z,12.13
2023-04-02T10:54:59.259Z,11.85
2023-04-02T10:57:37.337Z,11.29
2023-04-02T11:00:16.670Z,10.64
2023-04-02T11:03:08.607Z,11.47
2023-04-02T11:05:44.449Z,11.26
2023-04-02T11:08:34.387Z,11.81
2023-04-02T11:11:13.640Z,10.33
2023-04-02T11:14:09.013Z,11.24
2023-04-02T11:16:40.102Z,12.00
2023-04-02T11:19:15.963Z,11.62
2023-04-02T11:21:57.296Z,11.55
2023-04-02T11:24:34.484Z,12.29
2023-04-02T11:27:10.919Z,12.89
2023-04-02T11:29:45.458Z,11.81
2023-04-02T11:32:12.481Z,10.75
2023-04-02T11:34:43.200Z,11.26
2023-04-02T11:37:35.050Z,10.90
2023-04-02T11:40:06.653Z,10.90
2023-04-02T11:42:34.546Z,10.70
2023-04-02T11:45:23.400Z,11.63
2023-04-02T11:48:17.175Z,11.49
2023-04-02T11:50:45.788Z,11.03
2023-04-02T11:53:13.617Z,11.43
2023-04-02T11:55:44.320Z,11.23
2023-04-02T11:58:29.715Z,11.17
2023-04-02T12:01:05.641Z,11.59
2023-04-02T12:03:38.583Z,11.32
2023-04-02T12:06:07.862Z,11.97
2023-04-02T12:08:57.142Z,12.11
2023-04-02T12:11:32.860Z,12.40
2023-04-02T12:14:00.152Z,11.50
2023-04-02T12:16:31.578Z,11.29
2023-04-02T12:18:58.670Z,11.65
2023-04-02T12:21:28.140Z,12.42
2023-04-02T12:23:59.666Z,12.74
2023-04-02T12:26:32.171Z,12.67
2023-04-02T12:29:28.209Z,11.68
2023-04-02T12:31:56.933Z,10.60
2023-04-02T12:34:25.708Z,9.37
2023-04-02T12:37:01.315Z,8.55
2023-04-02T12:39:28.900Z,8.69
2023-04-02T12:41:56.488Z,8.82
2023-04-02T12:44:25.896Z,8.86
2023-04-02T12:46:52.988Z,8.99
2023-04-02T12:49:38.989Z,8.45
2023-04-02T12:52:10.917Z,8.30
2023-04-02T12:55:00.450Z,8.12
2023-04-02T12:57:27.715Z,8.17
2023-04-02T13:00:06.526Z,8.13
2023-04-02T13:02:44.859Z,8.27
2023-04-02T13:05:12.052Z,8.77
2023-04-02T13:07:39.147Z,8.98
2023-04-02T13:10:23.206Z,8.72
2023-04-02T13:12:55.323Z,8.90
2023-04-02T13:15:33.174Z,8.93
2023-04-02T13:18:28.244Z,8.36
2023-04-02T13:21:03.242Z,8.79
2023-04-02T13:23:30.383Z,8.76
2023-04-02T13:25:58.870Z,8.61
2023-04-02T13:28:26.300Z,8.66
2023-04-02T13:30:55.414Z,9.01
2023-04-02T13:33:22.559Z,9.08
2023-04-02T13:35:49.672Z,8.97
2023-04-02T13:38:16.750Z,9.20
2023-04-02T13:40:43.852Z,9.00
2023-04-02T13:43:17.109Z,9.13
2023-04-02T13:45:44.247Z,8.86
2023-04-02T13:48:14.460Z,8.55
2023-04-02T13:50:41.821Z,8.00
2023-04-02T13:53:10.645Z,7.28
2023-04-02T13:55:39.732Z,6.70
2023-04-02T13:58:06.826Z,7.07
2023-04-02T14:00:36.001Z,7.19
2023-04-02T14:03:15.279Z,7.37
2023-04-02T14:06:08.545Z,7.38
2023-04-02T14:09:16.740Z,6.99
2023-04-02T14:11:46.991Z,6.76
2023-04-02T14:14:20.096Z,6.93
2023-04-02T14:17:06.924Z,6.97
2023-04-02T14:19:52.430Z,6.96
2023-04-02T14:22:31.409Z,6.89
2023-04-02T14:25:11.310Z,6.99
2023-04-02T14:28:13.259Z,7.03
2023-04-02T14:31:00.913Z,6.94
2023-04-02T14:33:30.933Z,7.52
2023-04-02T14:36:03.949Z,7.67
2023-04-02T14:38:38.035Z,7.58
2023-04-02T14:41:08.882Z,7.65
2023-04-02T14:43:59.463Z,7.54
2023-04-02T14:46:26.904Z,7.92
2023-04-02T14:49:09.094Z,7.59
2023-04-02T14:51:58.831Z,7.39
2023-04-02T14:54:36.272Z,7.52
2023-04-02T14:57:23.172Z,7.29
2023-04-02T15:00:26.266Z,7.35
2023-04-02T15:02:57.831Z,6.72
2023-04-02T15:05:34.662Z,7.00
2023-04-02T15:08:27.403Z,7.07
2023-04-02T15:11:19.613Z,6.94
2023-04-02T15:13:55.717Z,6.83
2023-04-02T15:16:25.673Z,7.18
2023-04-02T15:18:53.621Z,7.00
2023-04-02T15:21:20.523Z,6.76
2023-04-02T15:24:02.561Z,6.58
2023-04-02T15:26:47.983Z,6.52
2023-04-02T15:29:42.874Z,6.44
2023-04-02T15:32:35.064Z,6.30
2023-04-02T15:35:24.200Z,6.31
2023-04-02T15:38:10.103Z,6.38
2023-04-02T15:40:59.414Z,5.95
2023-04-02T15:43:48.671Z,6.17
2023-04-02T15:46:23.173Z,6.18
2023-04-02T15:49:43.014Z,6.19
2023-04-02T15:52:11.652Z,6.56
2023-04-02T15:54:45.011Z,6.76
2023-04-02T15:57:32.593Z,5.99
2023-04-02T16:00:18.118Z,6.31
2023-04-02T16:02:54.146Z,6.10
2023-04-02T16:05:54.945Z,6.05
2023-04-02T16:08:46.145Z,6.11
2023-04-02T16:11:14.259Z,5.65
2023-04-02T16:13:41.966Z,5.50
2023-04-02T16:16:15.597Z,5.68
2023-04-02T16:19:02.838Z,5.56
2023-04-02T16:21:37.538Z,5.52
2023-04-02T16:24:13.741Z,5.63
2023-04-02T16:26:54.466Z,5.77
2023-04-02T16:29:55.593Z,5.47
2023-04-02T16:32:32.087Z,5.61
2023-04-02T16:35:32.553Z,5.40
2023-04-02T16:38:16.267Z,5.58
2023-04-02T16:41:07.529Z,5.38
2023-04-02T16:43:58.365Z,4.86
2023-04-02T16:46:46.560Z,5.07
2023-04-02T16:49:17.087Z,5.18
2023-04-02T16:52:12.989Z,5.22
2023-04-02T16:54:41.399Z,5.24
2023-04-02T16:57:32.862Z,5.41
2023-04-02T17:00:21.491Z,5.41
2023-04-02T17:02:54.761Z,5.54
2023-04-02T17:05:43.120Z,5.53
2023-04-02T17:08:12.749Z,5.58
2023-04-02T17:10:57.670Z,5.67
2023-04-02T17:13:33.981Z,5.39
2023-04-02T17:16:05.218Z,5.05
2023-04-02T17:18:32.913Z,4.89
2023-04-02T17:21:04.293Z,4.74
2023-04-02T17:23:31.501Z,4.71
2023-04-02T17:26:04.270Z,4.75
2023-04-02T17:28:37.945Z,4.85
2023-04-02T17:31:23.294Z,4.85
2023-04-02T17:33:50.485Z,4.88
2023-04-02T17:36:17.442Z,4.56
2023-04-02T17:39:06.968Z,4.70
2023-04-02T17:41:49.484Z,4.79
2023-04-02T17:44:56.933Z,5.04
2023-04-02T17:47:30.117Z,5.53
2023-04-02T17:50:09.887Z,5.40
2023-04-02T17:52:43.986Z,4.81
2023-04-02T17:55:17.454Z,4.93
2023-04-02T17:58:21.970Z,5.15
2023-04-02T18:01:04.237Z,5.36
2023-04-02T18:03:40.975Z,4.80
2023-04-02T18:06:32.713Z,3.97
2023-04-02T18:09:09.769Z,4.44
2023-04-02T18:11:37.129Z,4.50
2023-04-02T18:14:40.003Z,4.34
2023-04-02T18:17:38.672Z,4.00
2023-04-02T18:20:21.626Z,4.15
2023-04-02T18:23:20.121Z,3.60
2023-04-02T18:26:04.098Z,3.75
2023-04-02T18:28:41.008Z,3.82
2023-04-02T18:31:12.498Z,3.69
2023-04-02T18:33:51.823Z,3.48
2023-04-02T18:36:40.555Z,3.35
2023-04-02T18:39:23.055Z,3.13
2023-04-02T18:42:31.390Z,3.38
2023-04-02T18:45:33.277Z,3.21
2023-04-02T18:48:13.989Z,3.06
2023-04-02T18:50:46.051Z,3.06
2023-04-02T18:53:17.447Z,2.99
2023-04-02T18:56:17.169Z,2.98
2023-04-02T18:59:15.018Z,3.07
2023-04-02T19:01:44.646Z,2.74
2023-04-02T19:04:20.766Z,2.59
2023-04-02T19:07:02.672Z,2.53
2023-04-02T19:09:35.194Z,2.38
2023-04-02T19:12:07.093Z,2.22
2023-04-02T19:14:34.660Z,2.37
2023-04-02T19:17:05.509Z,2.57
2023-04-02T19:19:54.353Z,2.64
2023-04-02T19:22:38.769Z,2.79
2023-04-02T19:25:21.321Z,2.58
2023-04-02T19:27:58.510Z,2.35
2023-04-02T19:30:51.115Z,2.15
2023-04-02T19:33:42.818Z,2.45
2023-04-02T19:37:03.441Z,2.65
2023-04-02T19:39:36.439Z,2.37
2023-04-02T19:42:10.528Z,2.57
2023-04-02T19:44:39.674Z,2.32
2023-04-02T19:47:08.476Z,2.18
2023-04-02T19:49:35.662Z,2.20
2023-04-02T19:52:02.741Z,2.10
2023-04-02T19:54:30.524Z,2.35
2023-04-02T19:56:57.550Z,2.40
2023-04-02T19:59:24.858Z,2.55
2023-04-02T20:01:52.059Z,2.35
2023-04-02T20:04:19.238Z,2.75
2023-04-02T20:06:46.340Z,2.68
2023-04-02T20:09:13.427Z,2.96
2023-04-02T20:11:40.432Z,3.15
2023-04-02T20:14:08.147Z,2.72
2023-04-02T20:16:39.739Z,2.78
2023-04-02T20:19:06.886Z,2.72
2023-04-02T20:21:38.255Z,2.24
2023-04-02T20:24:06.949Z,2.24
2023-04-02T20:26:35.117Z,2.04
2023-04-02T20:29:02.151Z,2.18
2023-04-02T20:31:30.804Z,2.48
2023-04-02T20:33:58.377Z,2.61
2023-04-02T20:36:25.641Z,2.81
2023-04-02T20:38:52.666Z,3.16
2023-04-02T20:41:19.844Z,2.96
2023-04-02T20:43:46.836Z,2.61
2023-04-02T20:46:14.268Z,2.81
2023-04-02T20:48:41.322Z,2.92
2023-04-02T20:51:09.492Z,2.82
2023-04-02T20:53:37.042Z,3.20
2023-04-02T20:56:08.722Z,2.99
2023-04-02T20:58:36.217Z,2.80
2023-04-02T21:01:23.330Z,2.65
2023-04-02T21:03:53.757Z,2.79
2023-04-02T21:06:21.758Z,2.56
2023-04-02T21:08:49.205Z,2.74
2023-04-02T21:11:16.522Z,2.49
2023-04-02T21:13:44.405Z,2.64
2023-04-02T21:16:19.558Z,2.48
2023-04-02T21:18:46.836Z,2.79
2023-04-02T21:21:14.251Z,2.74
2023-04-02T21:23:42.053Z,2.51
2023-04-02T21:26:14.850Z,2.64
2023-04-02T21:28:42.046Z,2.67
2023-04-02T21:31:14.082Z,2.95
2023-04-02T21:33:43.458Z,2.51
2023-04-02T21:36:15.390Z,2.52
2023-04-02T21:38:48.833Z,2.83
2023-04-02T21:41:23.709Z,2.87
2023-04-02T21:43:50.974Z,2.83
2023-04-02T21:46:19.489Z,2.92
2023-04-02T21:48:47.780Z,2.95
2023-04-02T21:51:19.475Z,2.83
2023-04-02T21:53:46.433Z,3.21
2023-04-02T21:56:15.882Z,3.44
2023-04-02T21:58:46.220Z,3.22
2023-04-02T22:01:23.855Z,3.19
2023-04-02T22:03:57.144Z,3.12
2023-04-02T22:06:24.856Z,3.13
2023-04-02T22:08:53.587Z,2.87
2023-04-02T22:11:22.522Z,2.76
2023-04-02T22:13:49.825Z,2.73
2023-04-02T22:16:22.379Z,2.83
2023-04-02T22:18:49.904Z,2.90
2023-04-02T22:21:17.147Z,2.81
2023-04-02T22:23:44.314Z,2.13
2023-04-02T22:26:11.971Z,2.63
2023-04-02T22:28:39.089Z,2.31
2023-04-02T22:31:16.397Z,2.58
2023-04-02T22:33:44.250Z,2.23
2023-04-02T22:36:11.517Z,2.35
2023-04-02T22:38:38.641Z,2.49
2023-04-02T22:41:06.919Z,2.78
2023-04-02T22:43:34.335Z,2.82
2023-04-02T22:46:01.690Z,2.60
2023-04-02T22:48:28.717Z,2.56
2023-04-02T22:50:55.776Z,2.43
2023-04-02T22:53:22.966Z,2.20
2023-04-02T22:55:50.163Z,2.47
2023-04-02T22:58:17.542Z,2.52
2023-04-02T23:00:44.649Z,2.58
2023-04-02T23:03:11.794Z,2.38
2023-04-02T23:05:38.906Z,2.77
2023-04-02T23:08:06.283Z,2.75
2023-04-02T23:10:33.347Z,2.91
2023-04-02T23:13:00.407Z,3.31
2023-04-02T23:15:27.357Z,3.58
2023-04-02T23:17:54.499Z,3.84
2023-04-02T23:20:21.550Z,3.98
2023-04-02T23:22:48.537Z,4.30
2023-04-02T23:25:15.950Z,3.97
2023-04-02T23:27:42.949Z,3.63
2023-04-02T23:30:10.134Z,3.34
2023-04-02T23:32:37.220Z,3.69
2023-04-02T23:35:06.444Z,3.76
2023-04-02T23:37:33.436Z,4.27
2023-04-02T23:40:00.417Z,4.73
2023-04-02T23:42:28.434Z,4.81
2023-04-02T23:44:55.581Z,5.19
2023-04-02T23:47:22.760Z,5.84
2023-04-02T23:49:49.693Z,5.32
2023-04-02T23:52:18.009Z,6.04
2023-04-02T23:54:45.161Z,6.29
2023-04-02T23:57:12.224Z,5.27
2023-04-02T23:59:40.341Z,5.27
